createdAt,value
2022-11-14T00:00:23.571Z,4164.6
2022-11-14T00:05:59.108Z,4163.7
2022-11-14T00:11:34.000Z,4165.4
2022-11-14T00:17:10.573Z,4167.4
2022-11-14T00:22:46.117Z,4164.7
2022-11-14T00:28:22.127Z,4164.1
2022-11-14T00:33:57.637Z,4164.4
2022-11-14T00:39:32.829Z,4164.7
2022-11-14T00:45:07.745Z,4163.5
2022-11-14T00:50:43.364Z,4161
2022-11-14T00:56:18.527Z,4162.2
2022-11-14T01:01:59.097Z,4160.2
2022-11-14T01:07:34.687Z,4160.7
2022-11-14T01:13:10.245Z,4163
2022-11-14T01:18:45.180Z,4157.7
2022-11-14T01:24:21.159Z,4161.5
2022-11-14T01:29:56.339Z,4158
2022-11-14T01:35:31.319Z,4160.9
2022-11-14T01:41:06.884Z,4159
2022-11-14T01:47:04.343Z,4152.3
2022-11-14T01:52:37.225Z,4158.7
2022-11-14T01:58:13.359Z,4161
2022-11-14T02:03:48.912Z,4157.5
2022-11-14T02:09:23.970Z,4160.7
2022-11-14T02:15:00.071Z,4160.7
2022-11-14T02:20:35.923Z,4157.9
2022-11-14T02:26:10.990Z,4160.7
2022-11-14T02:31:47.396Z,4161.2
2022-11-14T02:37:22.641Z,4157.9
2022-11-14T02:42:57.683Z,4158.2
2022-11-14T02:48:55.098Z,4154.2
2022-11-14T02:54:28.199Z,4156.2
2022-11-14T03:00:03.242Z,4155.7
2022-11-14T03:05:38.731Z,4155.3
2022-11-14T03:11:15.515Z,4157.2
2022-11-14T03:16:50.544Z,4154.7
2022-11-14T03:22:25.760Z,4154.7
2022-11-14T03:28:00.998Z,4157.5
2022-11-14T03:33:36.878Z,4156.7
2022-11-14T03:39:17.691Z,4155.2
2022-11-14T03:44:52.944Z,4153.2
2022-11-14T03:50:28.036Z,4154
2022-11-14T03:56:03.475Z,4153.7
2022-11-14T04:01:39.955Z,4153.5
2022-11-14T04:07:16.290Z,4154.5
2022-11-14T04:12:51.720Z,4150.8
2022-11-14T04:18:30.836Z,4152.8
2022-11-14T04:24:12.357Z,4152.7
2022-11-14T04:29:48.264Z,4152.2
2022-11-14T04:35:23.513Z,4151.7
2022-11-14T04:40:58.464Z,4151.5
2022-11-14T04:46:55.681Z,4148.8
2022-11-14T04:52:29.063Z,4149.3
2022-11-14T04:58:03.827Z,4149
2022-11-14T05:03:39.062Z,4150.3
2022-11-14T05:09:13.848Z,4149.3
2022-11-14T05:14:49.801Z,4149.5
2022-11-14T05:20:24.682Z,4149.1
2022-11-14T05:26:00.082Z,4151.7
2022-11-14T05:31:35.107Z,4149.1
2022-11-14T05:37:10.447Z,4142.8
2022-11-14T05:42:46.555Z,4150.3
2022-11-14T05:48:43.527Z,4147.5
2022-11-14T05:54:16.248Z,4147.5
2022-11-14T05:59:51.395Z,4147.1
2022-11-14T06:05:26.272Z,4148.3
2022-11-14T06:11:02.139Z,4148.5
2022-11-14T06:16:37.064Z,4149.6
2022-11-14T06:22:11.981Z,4148.3
2022-11-14T06:27:46.706Z,4146.5
2022-11-14T06:33:21.480Z,4149.8
2022-11-14T06:38:56.434Z,4145.5
2022-11-14T06:44:32.506Z,4147.8
2022-11-14T06:50:07.454Z,4145.6
2022-11-14T06:55:42.393Z,4143.3
2022-11-14T07:01:17.548Z,4145.3
2022-11-14T07:06:54.599Z,4146.1
2022-11-14T07:12:30.090Z,4147.1
2022-11-14T07:18:25.800Z,4144.8
2022-11-14T07:24:01.398Z,4145.6
2022-11-14T07:29:36.193Z,4146.1
2022-11-14T07:35:13.973Z,4144.3
2022-11-14T07:40:48.986Z,4144.3
2022-11-14T07:46:34.014Z,4143.8
2022-11-14T07:52:11.742Z,4141.6
2022-11-14T07:57:51.732Z,4145.6
2022-11-14T08:03:29.072Z,4143.4
2022-11-14T08:09:06.378Z,4143.6
2022-11-14T08:14:41.926Z,4140.4
2022-11-14T08:20:17.928Z,4140.6
2022-11-14T08:25:52.923Z,4139.9
2022-11-14T08:31:27.842Z,4138.8
2022-11-14T08:37:04.135Z,4141.4
2022-11-14T08:42:46.369Z,4142.1
2022-11-14T08:48:22.527Z,4140.1
2022-11-14T08:53:58.147Z,4141.3
2022-11-14T08:59:44.684Z,4139.6
2022-11-14T09:05:20.813Z,4141.4
2022-11-14T09:10:55.664Z,4139.9
2022-11-14T09:16:31.229Z,4141.6
2022-11-14T09:22:06.781Z,4138.3
2022-11-14T09:27:50.491Z,4139.9
2022-11-14T09:33:25.702Z,4139.1
2022-11-14T09:39:03.021Z,4140.1
2022-11-14T09:44:37.911Z,4139.6
2022-11-14T09:50:13.049Z,4139.4
2022-11-14T09:55:48.021Z,4140.4
2022-11-14T10:01:22.815Z,4138.3
2022-11-14T10:06:58.625Z,4139.6
2022-11-14T10:12:33.778Z,4141.3
2022-11-14T10:18:08.918Z,4136.9
2022-11-14T10:23:45.509Z,4136.9
2022-11-14T10:29:21.623Z,4137.8
2022-11-14T10:34:56.381Z,4134.9
2022-11-14T10:40:56.856Z,4136.9
2022-11-14T10:46:36.408Z,4134.2
2022-11-14T10:52:12.698Z,4133.7
2022-11-14T10:57:49.142Z,4133.6
2022-11-14T11:03:24.325Z,4134.9
2022-11-14T11:08:59.513Z,4132.6
2022-11-14T11:14:36.569Z,4136.9
2022-11-14T11:20:11.400Z,4138.3
2022-11-14T11:25:46.636Z,4135.6
2022-11-14T11:31:21.625Z,4134.7
2022-11-14T11:37:04.693Z,4135.1
2022-11-14T11:44:11.742Z,4130.9
2022-11-14T11:49:55.812Z,4134.4
2022-11-14T11:55:33.160Z,4135.6
2022-11-14T12:01:07.986Z,4132.2
2022-11-14T12:06:43.246Z,4130.9
2022-11-14T12:12:21.678Z,4131.9
2022-11-14T12:18:00.888Z,4130.5
2022-11-14T12:23:35.755Z,4131.7
2022-11-14T12:29:10.898Z,4130.9
2022-11-14T12:34:45.919Z,4132.9
2022-11-14T12:40:21.876Z,4128.2
2022-11-14T12:45:57.619Z,4130.9
2022-11-14T12:51:33.477Z,4129.9
2022-11-14T12:57:10.292Z,4129.7
2022-11-14T13:02:45.229Z,4129.2
2022-11-14T13:08:20.543Z,4130.5
2022-11-14T13:14:00.490Z,4128.4
2022-11-14T13:19:35.676Z,4129.7
2022-11-14T13:25:10.608Z,4132.4
2022-11-14T13:31:08.451Z,4129
2022-11-14T13:36:49.006Z,4128.7
2022-11-14T13:42:40.537Z,4125.7
2022-11-14T13:48:15.851Z,4129
2022-11-14T13:53:50.846Z,4125
2022-11-14T13:59:26.809Z,4129.5
2022-11-14T14:05:01.973Z,4125.5
2022-11-14T14:10:36.991Z,4126.4
2022-11-14T14:16:12.104Z,4123
2022-11-14T14:21:47.198Z,4124
2022-11-14T14:27:21.916Z,4123
2022-11-14T14:32:56.884Z,4127.7
2022-11-14T14:38:37.958Z,4125
2022-11-14T14:44:41.848Z,4124.7
2022-11-14T14:50:17.504Z,4123
2022-11-14T14:55:53.061Z,4123
2022-11-14T15:01:29.118Z,4122.2
2022-11-14T15:07:05.750Z,4123.7
2022-11-14T15:12:40.651Z,4127.4
2022-11-14T15:18:15.510Z,4122
2022-11-14T15:23:51.261Z,4122.5
2022-11-14T15:29:26.396Z,4122.8
2022-11-14T15:35:01.319Z,4121
2022-11-14T15:40:45.559Z,4120.7
2022-11-14T15:46:23.528Z,4121.2
2022-11-14T15:52:05.449Z,4120.8
2022-11-14T15:57:40.497Z,4119.7
2022-11-14T16:03:16.696Z,4122.3
2022-11-14T16:08:51.562Z,4120.7
2022-11-14T16:14:26.598Z,4116.5
2022-11-14T16:20:02.812Z,4119.2
2022-11-14T16:25:38.129Z,4118.2
2022-11-14T16:31:13.401Z,4116
2022-11-14T16:36:48.297Z,4118.5
2022-11-14T16:42:24.981Z,4117
2022-11-14T16:48:00.011Z,4118.5
2022-11-14T16:53:35.072Z,4116
2022-11-14T16:59:10.461Z,4113.8
2022-11-14T17:04:45.129Z,4115
2022-11-14T17:10:20.292Z,4114.1
2022-11-14T17:15:55.167Z,4117.8
2022-11-14T17:21:35.236Z,4112.3
2022-11-14T17:27:35.189Z,4113.6
2022-11-14T17:33:14.197Z,4114
2022-11-14T17:38:53.648Z,4110.5
2022-11-14T17:44:30.417Z,4116.6
2022-11-14T17:50:05.209Z,4115.1
2022-11-14T17:56:07.072Z,4113
2022-11-14T18:01:43.687Z,4111.1
2022-11-14T18:07:20.333Z,4108.3
2022-11-14T18:12:55.193Z,4113
2022-11-14T18:18:36.799Z,4114
2022-11-14T18:24:15.676Z,4110.6
2022-11-14T18:29:50.543Z,4110.1
2022-11-14T18:35:33.554Z,4108.9
2022-11-14T18:41:09.370Z,4110.6
2022-11-14T18:46:45.121Z,4109.6
2022-11-14T18:52:20.220Z,4107.1
2022-11-14T18:57:55.153Z,4110.1
2022-11-14T19:03:33.334Z,4109.1
2022-11-14T19:09:12.655Z,4108.4
2022-11-14T19:14:47.718Z,4106.8
2022-11-14T19:20:22.436Z,4107.6
2022-11-14T19:25:57.417Z,4107.1
2022-11-14T19:31:33.189Z,4111.8
2022-11-14T19:37:08.008Z,4108.6
2022-11-14T19:42:43.267Z,4103.4
2022-11-14T19:48:18.244Z,4105.4
2022-11-14T19:54:02.205Z,4104.8
2022-11-14T19:59:49.138Z,4104.1
2022-11-14T20:05:24.173Z,4106.6
2022-11-14T20:11:02.858Z,4105.4
2022-11-14T20:16:37.947Z,4104.4
2022-11-14T20:22:12.795Z,4100.2
2022-11-14T20:27:47.850Z,4104.3
2022-11-14T20:33:25.252Z,4103.8
2022-11-14T20:39:00.332Z,4106.6
2022-11-14T20:44:40.985Z,4102.7
2022-11-14T20:50:17.926Z,4103.2
2022-11-14T20:56:02.095Z,4102.9
2022-11-14T21:01:58.056Z,4100.9
2022-11-14T21:07:38.173Z,4105.1
2022-11-14T21:13:21.064Z,4101.9
2022-11-14T21:19:07.557Z,4104.8
2022-11-14T21:24:46.580Z,4101.2
2022-11-14T21:30:21.470Z,4103.1
2022-11-14T21:36:47.663Z,4099.7
2022-11-14T21:42:22.921Z,4103.8
2022-11-14T21:47:57.981Z,4101.4
2022-11-14T21:53:35.500Z,4097.9
2022-11-14T21:59:10.355Z,4098.1
2022-11-14T22:04:45.172Z,4100.7
2022-11-14T22:10:20.021Z,4099.6
2022-11-14T22:15:56.523Z,4099.9
2022-11-14T22:21:31.393Z,4099.4
2022-11-14T22:27:09.441Z,4101.1
2022-11-14T22:32:44.303Z,4098.7
2022-11-14T22:38:19.188Z,4098.2
2022-11-14T22:43:58.613Z,4098.4
2022-11-14T22:49:34.766Z,4098.7
2022-11-14T22:55:19.426Z,4098.9
2022-11-14T23:00:59.569Z,4098.1
2022-11-14T23:06:34.490Z,4097
2022-11-14T23:12:09.317Z,4098.4
2022-11-14T23:17:45.302Z,4096.2
2022-11-14T23:23:20.140Z,4097.4
2022-11-14T23:28:57.781Z,4097
2022-11-14T23:34:32.761Z,4096.9
2022-11-14T23:40:07.650Z,4095.2
2022-11-14T23:45:42.521Z,4097.4
2022-11-14T23:51:17.306Z,4096.4
2022-11-14T23:56:53.237Z,4096.2
